首页
METAR-TAF:

METAR-TAF

机场 :

Luxeuil-les-Bains, 法国

纬度: 47-47N, 经度: 006-21E, 海拔: 278米

当前天气观测

该预报发布于20分钟前的16:30 UTC
风速4节,风向
温度 36°C
湿度 37%
气压 1021 hPa
能见度10公里或以上
1500米以下无云,无积雨云

METAR: LFSX 261630Z AUTO 19004KT CAVOK 36/19 Q1021

时间: 18:50 (16:50 UTC)

预报

该预报发布于2小时和50分钟前的14:00 UTC
预报有效从26日的 15点(UTC)到 27日的 15点(UTC)
风速3节,风向多变
能见度10公里或以上
1500米以下无云,无积雨云
成为
从 27日的 14点(UTC)到 27日的 15点(UTC)
风速13节,风向

TAF: LFSX 261400Z 2615/2715 VRB03KT CAVOK BECMG 2714/2715 36013KT

超过4000个机场的气象观测和天气预报(METAR&TAF报告)。

可查询的气象台以黄色和红色小点在地图上表示。

将鼠标移到小点上方,可查看气象台名称。

然后点击查看天气观测和预报。

如需切换地图:点击带黑十字的绿色按钮放大地图;点击带横线的绿色按钮缩小地图;或者点击绿色箭头查看邻近地区的地图。


METAR-TAF: